createdAt,value
2022-08-21T00:00:10.295Z,18.73
2022-08-21T00:01:17.971Z,18.73
2022-08-21T00:02:25.085Z,18.73
2022-08-21T00:03:27.510Z,18.72
2022-08-21T00:04:31.040Z,18.73
2022-08-21T00:05:36.439Z,18.72
2022-08-21T00:06:40.277Z,18.72
2022-08-21T00:07:42.426Z,18.70
2022-08-21T00:08:45.813Z,18.71
2022-08-21T00:09:48.301Z,18.70
2022-08-21T00:10:52.234Z,18.70
2022-08-21T00:11:54.400Z,18.70
2022-08-21T00:12:57.411Z,18.70
2022-08-21T00:14:00.446Z,18.70
2022-08-21T00:15:03.593Z,18.69
2022-08-21T00:16:07.296Z,18.68
2022-08-21T00:17:10.417Z,18.69
2022-08-21T00:18:14.057Z,18.69
2022-08-21T00:19:17.116Z,18.68
2022-08-21T00:20:19.581Z,18.69
2022-08-21T00:21:23.263Z,18.69
2022-08-21T00:22:25.331Z,18.68
2022-08-21T00:23:28.254Z,18.66
2022-08-21T00:24:30.238Z,18.66
2022-08-21T00:25:33.344Z,18.65
2022-08-21T00:26:35.556Z,18.64
2022-08-21T00:27:43.234Z,18.64
2022-08-21T00:28:46.639Z,18.64
2022-08-21T00:29:49.815Z,18.64
2022-08-21T00:30:51.926Z,18.63
2022-08-21T00:31:55.536Z,18.63
2022-08-21T00:32:58.830Z,18.62
2022-08-21T00:34:03.690Z,18.62
2022-08-21T00:35:06.654Z,18.61
2022-08-21T00:36:10.268Z,18.62
2022-08-21T00:37:12.716Z,18.62
2022-08-21T00:38:15.911Z,18.61
2022-08-21T00:39:17.921Z,18.61
2022-08-21T00:40:24.351Z,18.60
2022-08-21T00:41:37.346Z,18.61
2022-08-21T00:42:41.788Z,18.59
2022-08-21T00:43:44.841Z,18.59
2022-08-21T00:44:49.156Z,18.59
2022-08-21T00:45:54.280Z,18.59
2022-08-21T00:46:56.172Z,18.58
2022-08-21T00:47:59.561Z,18.59
2022-08-21T00:49:03.510Z,18.58
2022-08-21T00:50:09.591Z,18.57
2022-08-21T00:51:24.138Z,18.57
2022-08-21T00:52:29.803Z,18.57
2022-08-21T00:53:33.630Z,18.56
2022-08-21T00:54:36.456Z,18.56
2022-08-21T00:55:43.032Z,18.56
2022-08-21T00:56:45.053Z,18.57
2022-08-21T00:57:53.026Z,18.56
2022-08-21T00:58:56.731Z,18.57
2022-08-21T01:00:03.378Z,18.56
2022-08-21T01:01:08.788Z,18.56
2022-08-21T01:02:12.081Z,18.57
2022-08-21T01:03:17.099Z,18.56
2022-08-21T01:04:22.496Z,18.55
2022-08-21T01:05:25.672Z,18.55
2022-08-21T01:06:28.038Z,18.54
2022-08-21T01:07:31.235Z,18.54
2022-08-21T01:08:34.040Z,18.54
2022-08-21T01:09:38.623Z,18.54
2022-08-21T01:10:41.313Z,18.54
2022-08-21T01:11:44.873Z,18.54
2022-08-21T01:12:46.946Z,18.54
2022-08-21T01:13:50.226Z,18.53
2022-08-21T01:14:52.798Z,18.53
2022-08-21T01:15:58.548Z,18.53
2022-08-21T01:17:04.199Z,18.53
2022-08-21T01:18:12.035Z,18.52
2022-08-21T01:19:14.808Z,18.52
2022-08-21T01:20:19.562Z,18.51
2022-08-21T01:21:28.011Z,18.51
2022-08-21T01:22:31.699Z,18.51
2022-08-21T01:23:35.039Z,18.50
2022-08-21T01:24:38.561Z,18.51
2022-08-21T01:25:40.550Z,18.51
2022-08-21T01:26:44.110Z,18.49
2022-08-21T01:27:46.175Z,18.49
2022-08-21T01:28:54.491Z,18.50
2022-08-21T01:30:05.535Z,18.48
2022-08-21T01:31:11.800Z,18.48
2022-08-21T01:32:18.575Z,18.47
2022-08-21T01:33:24.437Z,18.45
2022-08-21T01:34:26.357Z,18.44
2022-08-21T01:35:29.427Z,18.45
2022-08-21T01:36:33.683Z,18.45
2022-08-21T01:37:36.811Z,18.43
2022-08-21T01:38:39.138Z,18.43
2022-08-21T01:39:43.306Z,18.43
2022-08-21T01:40:45.609Z,18.42
2022-08-21T01:41:49.736Z,18.42
2022-08-21T01:42:52.148Z,18.42
2022-08-21T01:43:55.361Z,18.41
2022-08-21T01:44:57.545Z,18.41
2022-08-21T01:46:00.679Z,18.42
2022-08-21T01:47:07.025Z,18.40
2022-08-21T01:48:09.958Z,18.40
2022-08-21T01:49:11.911Z,18.39
2022-08-21T01:50:18.981Z,18.39
2022-08-21T01:51:20.939Z,18.38
2022-08-21T01:52:25.450Z,18.38
2022-08-21T01:53:33.319Z,18.37
2022-08-21T01:54:37.263Z,18.36
2022-08-21T01:55:39.203Z,18.35
2022-08-21T01:56:46.333Z,18.35
2022-08-21T01:57:49.425Z,18.34
2022-08-21T01:58:52.422Z,18.33
2022-08-21T01:59:54.899Z,18.33
2022-08-21T02:00:58.034Z,18.33
2022-08-21T02:02:00.025Z,18.33
2022-08-21T02:03:03.199Z,18.32
2022-08-21T02:04:05.171Z,18.32
2022-08-21T02:05:10.283Z,18.32
2022-08-21T02:06:16.066Z,18.31
2022-08-21T02:07:19.610Z,18.31
2022-08-21T02:08:24.228Z,18.31
2022-08-21T02:09:27.719Z,18.30
2022-08-21T02:10:32.532Z,18.30
2022-08-21T02:11:35.642Z,18.30
2022-08-21T02:12:37.663Z,18.29
2022-08-21T02:13:40.814Z,18.29
2022-08-21T02:14:42.983Z,18.28
2022-08-21T02:15:45.964Z,18.28
2022-08-21T02:16:48.105Z,18.27
2022-08-21T02:17:54.138Z,18.27
2022-08-21T02:18:56.170Z,18.27
2022-08-21T02:19:59.388Z,18.27
2022-08-21T02:21:01.545Z,18.25
2022-08-21T02:22:05.158Z,18.24
2022-08-21T02:23:09.844Z,18.24
2022-08-21T02:24:14.635Z,18.24
2022-08-21T02:25:17.069Z,18.24
2022-08-21T02:26:20.315Z,18.24
2022-08-21T02:27:26.586Z,18.23
2022-08-21T02:28:30.678Z,18.22
2022-08-21T02:29:32.632Z,18.23
2022-08-21T02:30:38.937Z,18.22
2022-08-21T02:31:40.869Z,18.21
2022-08-21T02:32:44.065Z,18.21
2022-08-21T02:33:46.203Z,18.21
2022-08-21T02:34:49.787Z,18.21
2022-08-21T02:35:53.031Z,18.20
2022-08-21T02:36:59.327Z,18.20
2022-08-21T02:38:04.446Z,18.20
2022-08-21T02:39:07.748Z,18.20
2022-08-21T02:40:13.133Z,18.18
2022-08-21T02:41:18.736Z,18.18
2022-08-21T02:42:20.642Z,18.18
2022-08-21T02:43:25.760Z,18.17
2022-08-21T02:44:30.214Z,18.18
2022-08-21T02:45:38.782Z,18.16
2022-08-21T02:46:40.732Z,18.17
2022-08-21T02:47:50.256Z,18.17
2022-08-21T02:48:52.350Z,18.16
2022-08-21T02:49:55.498Z,18.16
2022-08-21T02:50:59.260Z,18.15
2022-08-21T02:52:02.330Z,18.15
2022-08-21T02:53:04.876Z,18.15
2022-08-21T02:54:09.132Z,18.15
2022-08-21T02:55:12.724Z,18.14
2022-08-21T02:56:19.116Z,18.13
2022-08-21T02:57:21.249Z,18.13
2022-08-21T02:58:28.513Z,18.12
2022-08-21T02:59:30.503Z,18.11
2022-08-21T03:00:34.529Z,18.11
2022-08-21T03:01:37.439Z,18.11
2022-08-21T03:02:40.504Z,18.11
2022-08-21T03:03:44.065Z,18.10
2022-08-21T03:04:47.008Z,18.10
2022-08-21T03:05:49.815Z,18.10
2022-08-21T03:06:53.094Z,18.10
2022-08-21T03:07:55.572Z,18.09
2022-08-21T03:08:58.525Z,18.10
2022-08-21T03:10:00.522Z,18.09
2022-08-21T03:11:05.726Z,18.10
2022-08-21T03:12:09.620Z,18.10
2022-08-21T03:13:13.804Z,18.09
2022-08-21T03:14:15.945Z,18.08
2022-08-21T03:15:21.382Z,18.08
2022-08-21T03:16:23.333Z,18.07
2022-08-21T03:17:29.420Z,18.07
2022-08-21T03:18:32.010Z,18.07
2022-08-21T03:19:35.064Z,18.07
2022-08-21T03:20:38.355Z,18.06
2022-08-21T03:21:41.509Z,18.05
2022-08-21T03:22:45.673Z,18.05
2022-08-21T03:23:56.152Z,18.06
2022-08-21T03:24:58.292Z,18.03
2022-08-21T03:26:01.250Z,18.05
2022-08-21T03:27:04.936Z,18.04
2022-08-21T03:28:14.705Z,18.05
2022-08-21T03:29:17.806Z,18.05
2022-08-21T03:30:21.722Z,18.04
2022-08-21T03:31:24.815Z,18.04
2022-08-21T03:32:27.178Z,18.05
2022-08-21T03:33:30.109Z,18.03
2022-08-21T03:34:32.088Z,18.04
2022-08-21T03:35:35.073Z,18.03
2022-08-21T03:36:38.274Z,18.03
2022-08-21T03:37:40.642Z,18.02
2022-08-21T03:38:43.705Z,18.02
2022-08-21T03:39:45.962Z,18.01
2022-08-21T03:40:49.163Z,18.02
2022-08-21T03:41:51.050Z,18.01
2022-08-21T03:42:55.386Z,18.01
2022-08-21T03:43:57.473Z,18.00
2022-08-21T03:45:00.509Z,18.00
2022-08-21T03:46:05.446Z,18.00
2022-08-21T03:47:07.484Z,17.99
2022-08-21T03:48:11.084Z,17.99
2022-08-21T03:49:15.664Z,17.99
2022-08-21T03:50:19.163Z,17.99
2022-08-21T03:51:21.107Z,17.99
2022-08-21T03:52:24.433Z,17.98
2022-08-21T03:53:26.410Z,17.98
2022-08-21T03:54:29.377Z,17.98
2022-08-21T03:55:32.011Z,17.97
2022-08-21T03:56:36.284Z,17.97
2022-08-21T03:57:38.268Z,17.95
2022-08-21T03:58:42.587Z,17.96
2022-08-21T03:59:44.524Z,17.96
2022-08-21T04:00:48.475Z,17.95
2022-08-21T04:01:54.839Z,17.95
2022-08-21T04:02:57.927Z,17.95
2022-08-21T04:04:01.313Z,17.94
2022-08-21T04:05:04.074Z,17.93
2022-08-21T04:06:08.314Z,17.93
2022-08-21T04:07:10.369Z,17.92
2022-08-21T04:08:14.021Z,17.93
2022-08-21T04:09:15.959Z,17.92
2022-08-21T04:10:19.065Z,17.92
2022-08-21T04:11:22.105Z,17.92
2022-08-21T04:12:24.783Z,17.92
2022-08-21T04:13:29.123Z,17.92
2022-08-21T04:14:32.630Z,17.91
2022-08-21T04:15:36.427Z,17.91
2022-08-21T04:16:38.485Z,17.90
2022-08-21T04:17:41.457Z,17.90
2022-08-21T04:18:43.740Z,17.90
2022-08-21T04:19:49.384Z,17.90
2022-08-21T04:20:58.026Z,17.90
2022-08-21T04:22:00.479Z,17.89
2022-08-21T04:23:04.119Z,17.89
2022-08-21T04:24:06.952Z,17.88
2022-08-21T04:25:10.330Z,17.88
2022-08-21T04:26:12.402Z,17.88
2022-08-21T04:27:15.308Z,17.88
2022-08-21T04:28:18.327Z,17.88
2022-08-21T04:29:20.884Z,17.88
2022-08-21T04:30:28.134Z,17.87
2022-08-21T04:31:30.817Z,17.87
2022-08-21T04:32:33.771Z,17.86
2022-08-21T04:33:36.000Z,17.87
2022-08-21T04:34:38.952Z,17.86
2022-08-21T04:35:41.457Z,17.85
2022-08-21T04:36:44.412Z,17.84
2022-08-21T04:37:46.430Z,17.84
2022-08-21T04:38:49.569Z,17.84
2022-08-21T04:39:53.536Z,17.85
2022-08-21T04:40:56.827Z,17.84
2022-08-21T04:41:58.805Z,17.84
2022-08-21T04:43:06.446Z,17.84
2022-08-21T04:44:09.490Z,17.83
2022-08-21T04:45:18.079Z,17.83
2022-08-21T04:46:22.481Z,17.83
2022-08-21T04:47:25.080Z,17.83
2022-08-21T04:48:48.027Z,17.84
2022-08-21T04:49:50.354Z,17.82
2022-08-21T04:50:59.771Z,17.81
2022-08-21T04:52:02.741Z,17.81
2022-08-21T04:53:07.434Z,17.81
2022-08-21T04:54:13.650Z,17.81
2022-08-21T04:55:18.795Z,17.81
2022-08-21T04:56:23.652Z,17.82
2022-08-21T04:57:39.685Z,17.81
2022-08-21T04:58:53.198Z,17.82
2022-08-21T04:59:55.228Z,17.81
2022-08-21T05:01:02.461Z,17.81
2022-08-21T05:02:06.935Z,17.81
2022-08-21T05:03:11.837Z,17.81
2022-08-21T05:04:17.952Z,17.82
2022-08-21T05:05:21.333Z,17.82
2022-08-21T05:06:25.047Z,17.80
2022-08-21T05:07:41.961Z,17.81
2022-08-21T05:08:49.576Z,17.82
2022-08-21T05:09:52.698Z,17.84
2022-08-21T05:11:00.272Z,17.90
2022-08-21T05:12:04.036Z,17.98
2022-08-21T05:13:08.694Z,18.05
2022-08-21T05:14:10.780Z,18.12
2022-08-21T05:15:14.857Z,18.19
2022-08-21T05:16:17.176Z,18.26
2022-08-21T05:17:41.952Z,18.35
2022-08-21T05:18:44.001Z,18.41
2022-08-21T05:19:46.978Z,18.46
2022-08-21T05:20:48.819Z,18.51
2022-08-21T05:21:51.921Z,18.56
2022-08-21T05:22:53.823Z,18.61
2022-08-21T05:23:56.735Z,18.66
2022-08-21T05:24:59.248Z,18.72
2022-08-21T05:26:03.314Z,18.76
2022-08-21T05:27:07.806Z,18.82
2022-08-21T05:28:12.399Z,18.87
2022-08-21T05:29:16.405Z,18.91
2022-08-21T05:30:19.958Z,18.95
2022-08-21T05:31:21.986Z,19.00
2022-08-21T05:32:25.026Z,19.03
2022-08-21T05:33:28.391Z,19.08
2022-08-21T05:34:31.513Z,19.13
2022-08-21T05:35:34.477Z,19.18
2022-08-21T05:36:37.605Z,19.23
2022-08-21T05:37:39.469Z,19.26
2022-08-21T05:38:42.760Z,19.29
2022-08-21T05:40:05.069Z,19.35
2022-08-21T05:41:08.355Z,19.39
2022-08-21T05:42:10.340Z,19.43
2022-08-21T05:43:13.365Z,19.46
2022-08-21T05:44:15.422Z,19.48
2022-08-21T05:45:18.726Z,19.54
2022-08-21T05:46:42.621Z,19.56
2022-08-21T05:47:44.619Z,19.60
2022-08-21T05:48:48.891Z,19.63
2022-08-21T05:49:50.918Z,19.65
2022-08-21T05:50:55.351Z,19.68
2022-08-21T05:51:57.448Z,19.70
2022-08-21T05:53:07.054Z,19.72
2022-08-21T05:54:10.346Z,19.76
2022-08-21T05:55:12.384Z,19.79
2022-08-21T05:56:16.015Z,19.80
2022-08-21T05:57:17.927Z,19.83
2022-08-21T05:58:23.802Z,19.86
2022-08-21T05:59:25.709Z,19.90
2022-08-21T06:00:28.829Z,19.93
2022-08-21T06:01:31.693Z,19.96
2022-08-21T06:02:34.739Z,19.98
2022-08-21T06:03:38.661Z,20.02
2022-08-21T06:04:43.260Z,20.04
2022-08-21T06:05:46.708Z,20.05
2022-08-21T06:06:49.841Z,20.09
2022-08-21T06:07:52.397Z,20.10
2022-08-21T06:08:55.404Z,20.13
2022-08-21T06:09:57.508Z,20.16
2022-08-21T06:11:02.451Z,20.17
2022-08-21T06:12:06.033Z,20.18
2022-08-21T06:13:09.174Z,20.22
2022-08-21T06:14:11.259Z,20.23
2022-08-21T06:15:14.298Z,20.25
2022-08-21T06:16:17.482Z,20.28
2022-08-21T06:17:20.999Z,20.29
2022-08-21T06:18:22.906Z,20.30
2022-08-21T06:19:25.855Z,20.32
2022-08-21T06:20:29.319Z,20.36
2022-08-21T06:21:32.464Z,20.37
2022-08-21T06:22:35.217Z,20.38
2022-08-21T06:23:38.290Z,20.41
2022-08-21T06:24:40.512Z,20.42
2022-08-21T06:25:43.651Z,20.44
2022-08-21T06:26:45.609Z,20.45
2022-08-21T06:27:48.598Z,20.45
2022-08-21T06:28:51.881Z,20.43
2022-08-21T06:29:54.077Z,20.42
2022-08-21T06:30:57.036Z,20.42
2022-08-21T06:31:58.955Z,20.43
2022-08-21T06:33:02.568Z,20.43
2022-08-21T06:34:04.871Z,20.42
2022-08-21T06:35:08.761Z,20.46
2022-08-21T06:36:12.121Z,20.46
2022-08-21T06:37:15.048Z,20.46
2022-08-21T06:38:16.988Z,20.48
2022-08-21T06:39:24.834Z,20.49
2022-08-21T06:40:35.061Z,20.53
2022-08-21T06:41:39.144Z,20.53
2022-08-21T06:42:42.964Z,20.53
2022-08-21T06:43:46.748Z,20.54
2022-08-21T06:44:50.451Z,20.53
2022-08-21T06:45:53.389Z,20.56
2022-08-21T06:46:55.288Z,20.56
2022-08-21T06:47:58.303Z,20.57
2022-08-21T06:49:00.343Z,20.57
2022-08-21T06:50:03.688Z,20.58
2022-08-21T06:51:05.918Z,20.59
2022-08-21T06:52:13.813Z,20.61
2022-08-21T06:53:19.222Z,20.60
2022-08-21T06:54:22.715Z,20.61
2022-08-21T06:55:29.076Z,20.63
2022-08-21T06:56:34.379Z,20.64
2022-08-21T06:57:36.742Z,20.66
2022-08-21T06:58:39.799Z,20.67
2022-08-21T06:59:41.894Z,20.66
2022-08-21T07:00:47.905Z,20.67
2022-08-21T07:01:50.548Z,20.67
2022-08-21T07:02:53.620Z,20.68
2022-08-21T07:03:55.798Z,20.69
2022-08-21T07:05:00.133Z,20.68
2022-08-21T07:06:03.601Z,20.69
2022-08-21T07:07:05.867Z,20.70
2022-08-21T07:08:10.313Z,20.71
2022-08-21T07:09:12.824Z,20.70
2022-08-21T07:10:21.725Z,20.70
2022-08-21T07:11:25.641Z,20.71
2022-08-21T07:12:29.199Z,20.72
2022-08-21T07:13:31.216Z,20.74
2022-08-21T07:14:34.220Z,20.73
2022-08-21T07:15:36.231Z,20.74
2022-08-21T07:16:39.173Z,20.74
2022-08-21T07:17:44.709Z,20.77
2022-08-21T07:18:49.441Z,20.77
2022-08-21T07:19:52.480Z,20.78
2022-08-21T07:20:56.740Z,20.78
2022-08-21T07:22:02.016Z,20.79
2022-08-21T07:23:08.327Z,20.80
2022-08-21T07:24:11.808Z,20.81
2022-08-21T07:25:14.847Z,20.81
2022-08-21T07:26:19.215Z,20.82
2022-08-21T07:27:22.323Z,20.84
2022-08-21T07:28:24.265Z,20.84
2022-08-21T07:29:27.361Z,20.86
2022-08-21T07:30:29.728Z,20.88
2022-08-21T07:31:33.339Z,20.88
2022-08-21T07:32:35.305Z,20.87
2022-08-21T07:33:38.432Z,20.88
2022-08-21T07:34:40.389Z,20.89
2022-08-21T07:35:43.333Z,20.91
2022-08-21T07:36:45.487Z,20.93
2022-08-21T07:37:49.357Z,20.96
2022-08-21T07:38:52.667Z,20.96
2022-08-21T07:39:57.631Z,20.95
2022-08-21T07:41:01.483Z,20.95
2022-08-21T07:42:08.185Z,20.97
2022-08-21T07:43:10.683Z,20.97
2022-08-21T07:44:13.698Z,20.97
2022-08-21T07:45:16.589Z,20.97
2022-08-21T07:46:19.744Z,20.95
2022-08-21T07:47:41.822Z,20.95
2022-08-21T07:48:45.200Z,20.95
2022-08-21T07:49:48.399Z,20.94
2022-08-21T07:50:52.071Z,20.94
2022-08-21T07:51:55.945Z,20.94
2022-08-21T07:52:58.049Z,20.93
2022-08-21T07:54:02.856Z,20.94
2022-08-21T07:55:08.351Z,20.95
2022-08-21T07:56:12.381Z,20.95
2022-08-21T07:57:14.407Z,20.97
2022-08-21T07:58:21.749Z,20.97
2022-08-21T07:59:23.814Z,20.98
2022-08-21T08:00:28.713Z,20.98
2022-08-21T08:01:31.608Z,20.99
2022-08-21T08:02:34.565Z,21.01
2022-08-21T08:03:36.595Z,21.01
2022-08-21T08:04:50.983Z,21.02
2022-08-21T08:05:54.185Z,21.02
2022-08-21T08:06:56.130Z,21.02
2022-08-21T08:07:59.158Z,21.02
2022-08-21T08:09:03.715Z,21.02
2022-08-21T08:10:10.046Z,21.04
2022-08-21T08:11:16.171Z,21.04
2022-08-21T08:12:18.611Z,21.06
2022-08-21T08:13:21.856Z,21.06
2022-08-21T08:14:31.402Z,21.07
2022-08-21T08:15:37.643Z,21.08
2022-08-21T08:16:40.119Z,21.08
2022-08-21T08:17:43.416Z,21.08
2022-08-21T08:18:45.796Z,21.08
2022-08-21T08:19:49.445Z,21.08
2022-08-21T08:20:51.436Z,21.09
2022-08-21T08:21:54.592Z,21.10
2022-08-21T08:22:56.669Z,21.11
2022-08-21T08:23:59.644Z,21.13
2022-08-21T08:25:24.860Z,21.14
2022-08-21T08:26:29.112Z,21.13
2022-08-21T08:27:31.109Z,21.13
2022-08-21T08:28:35.187Z,21.13
2022-08-21T08:29:37.217Z,21.14
2022-08-21T08:30:40.135Z,21.13
2022-08-21T08:31:42.696Z,21.14
2022-08-21T08:32:46.194Z,21.11
2022-08-21T08:33:48.145Z,21.11
2022-08-21T08:34:52.611Z,21.10
2022-08-21T08:35:54.906Z,21.09
2022-08-21T08:36:58.897Z,21.08
2022-08-21T08:38:01.057Z,21.07
2022-08-21T08:39:05.514Z,21.07
2022-08-21T08:40:12.414Z,21.06
2022-08-21T08:41:19.929Z,21.06
2022-08-21T08:42:33.733Z,21.07
2022-08-21T08:43:36.887Z,21.06
2022-08-21T08:44:40.121Z,21.06
2022-08-21T08:45:47.982Z,21.07
2022-08-21T08:46:53.671Z,21.07
2022-08-21T08:48:03.612Z,21.08
2022-08-21T08:49:13.619Z,21.06
2022-08-21T08:50:22.500Z,21.04
2022-08-21T08:51:29.953Z,21.03
2022-08-21T08:52:35.869Z,21.02
2022-08-21T08:53:49.329Z,21.04
2022-08-21T08:55:02.301Z,21.07
2022-08-21T08:56:07.418Z,21.12
2022-08-21T08:57:18.004Z,21.14
2022-08-21T08:58:25.196Z,21.17
2022-08-21T08:59:36.997Z,21.20
2022-08-21T09:00:40.342Z,21.22
2022-08-21T09:01:43.536Z,21.24
2022-08-21T09:02:48.606Z,21.24
2022-08-21T09:03:52.849Z,21.24
2022-08-21T09:04:56.024Z,21.23
2022-08-21T09:06:14.012Z,21.20
2022-08-21T09:07:27.516Z,21.17
2022-08-21T09:08:44.557Z,21.15
2022-08-21T09:10:01.460Z,21.13
2022-08-21T09:11:06.014Z,21.13
2022-08-21T09:12:17.192Z,21.16
2022-08-21T09:13:25.390Z,21.18
2022-08-21T09:14:38.546Z,21.21
2022-08-21T09:15:52.439Z,21.22
2022-08-21T09:17:01.905Z,21.21
2022-08-21T09:18:20.848Z,21.21
2022-08-21T09:19:38.453Z,21.24
2022-08-21T09:20:48.432Z,21.27
2022-08-21T09:22:00.621Z,21.28
2022-08-21T09:23:18.927Z,21.27
2022-08-21T09:24:31.937Z,21.30
2022-08-21T09:25:41.227Z,21.31
2022-08-21T09:26:51.058Z,21.35
2022-08-21T09:27:55.707Z,21.34
2022-08-21T09:29:01.604Z,21.36
2022-08-21T09:30:08.981Z,21.37
2022-08-21T09:31:22.909Z,21.37
2022-08-21T09:32:36.934Z,21.36
2022-08-21T09:33:39.323Z,21.34
2022-08-21T09:34:42.331Z,21.33
2022-08-21T09:35:53.071Z,21.32
2022-08-21T09:36:56.086Z,21.29
2022-08-21T09:38:02.199Z,21.28
2022-08-21T09:39:06.451Z,21.26
2022-08-21T09:40:24.857Z,21.23
2022-08-21T09:41:29.464Z,21.22
2022-08-21T09:42:34.212Z,21.21
2022-08-21T09:43:40.368Z,21.20
2022-08-21T09:44:44.882Z,21.19
2022-08-21T09:45:49.498Z,21.19
2022-08-21T09:46:53.553Z,21.19
2022-08-21T09:47:56.143Z,21.20
2022-08-21T09:49:02.061Z,21.20
2022-08-21T09:50:13.667Z,21.21
2022-08-21T09:51:18.975Z,21.20
2022-08-21T09:52:24.270Z,21.20
2022-08-21T09:53:35.493Z,21.20
2022-08-21T09:54:42.166Z,21.20
2022-08-21T09:56:09.224Z,21.23
2022-08-21T09:57:35.621Z,21.25
2022-08-21T09:58:42.646Z,21.27
2022-08-21T09:59:49.979Z,21.27
2022-08-21T10:00:59.538Z,21.26
2022-08-21T10:02:06.029Z,21.26
2022-08-21T10:03:15.458Z,21.26
2022-08-21T10:04:23.613Z,21.27
2022-08-21T10:05:28.032Z,21.28
2022-08-21T10:06:31.623Z,21.30
2022-08-21T10:07:39.224Z,21.33
2022-08-21T10:08:43.504Z,21.33
2022-08-21T10:09:45.537Z,21.35
2022-08-21T10:10:56.412Z,21.37
2022-08-21T10:12:18.815Z,21.39
2022-08-21T10:13:28.018Z,21.40
2022-08-21T10:14:53.042Z,21.43
2022-08-21T10:16:10.526Z,21.43
2022-08-21T10:17:19.355Z,21.45
2022-08-21T10:18:40.692Z,21.46
2022-08-21T10:19:54.483Z,21.48
2022-08-21T10:21:06.526Z,21.50
2022-08-21T10:22:24.594Z,21.50
2022-08-21T10:23:39.836Z,21.51
2022-08-21T10:25:00.036Z,21.50
2022-08-21T10:26:14.063Z,21.51
2022-08-21T10:27:24.819Z,21.52
2022-08-21T10:28:38.076Z,21.52
2022-08-21T10:29:48.653Z,21.53
2022-08-21T10:30:57.116Z,21.55
2022-08-21T10:32:22.401Z,21.53
2022-08-21T10:33:43.910Z,21.52
2022-08-21T10:34:54.624Z,21.51
2022-08-21T10:36:04.823Z,21.49
2022-08-21T10:37:19.616Z,21.49
2022-08-21T10:39:12.102Z,21.50
2022-08-21T10:40:24.132Z,21.49
2022-08-21T10:41:39.375Z,21.51
2022-08-21T10:42:54.497Z,21.51
2022-08-21T10:44:08.909Z,21.50
2022-08-21T10:45:23.106Z,21.49
2022-08-21T10:46:39.145Z,21.50
2022-08-21T10:47:48.719Z,21.49
2022-08-21T10:48:55.985Z,21.51
2022-08-21T10:50:12.908Z,21.52
2022-08-21T10:51:29.022Z,21.54
2022-08-21T10:52:45.472Z,21.52
2022-08-21T10:53:56.936Z,21.51
2022-08-21T10:55:05.531Z,21.50
2022-08-21T10:56:16.946Z,21.51
2022-08-21T10:57:32.156Z,21.50
2022-08-21T10:58:42.335Z,21.48
2022-08-21T10:59:55.010Z,21.49
2022-08-21T11:01:07.262Z,21.48
2022-08-21T11:02:16.423Z,21.48
2022-08-21T11:03:25.626Z,21.47
2022-08-21T11:04:44.619Z,21.48
2022-08-21T11:05:56.383Z,21.47
2022-08-21T11:07:07.129Z,21.49
2022-08-21T11:08:25.925Z,21.49
2022-08-21T11:09:32.234Z,21.51
2022-08-21T11:10:40.888Z,21.54
2022-08-21T11:12:08.881Z,21.55
2022-08-21T11:13:20.098Z,21.56
2022-08-21T11:14:32.671Z,21.58
2022-08-21T11:15:42.215Z,21.57
2022-08-21T11:16:50.472Z,21.58
2022-08-21T11:18:02.444Z,21.57
2022-08-21T11:19:15.684Z,21.54
2022-08-21T11:20:29.077Z,21.51
2022-08-21T11:21:40.169Z,21.49
2022-08-21T11:22:54.529Z,21.48
2022-08-21T11:24:05.996Z,21.47
2022-08-21T11:25:18.303Z,21.44
2022-08-21T11:26:37.108Z,21.42
2022-08-21T11:27:44.353Z,21.41
2022-08-21T11:28:54.667Z,21.41
2022-08-21T11:29:59.005Z,21.40
2022-08-21T11:31:21.247Z,21.40
2022-08-21T11:32:46.535Z,21.40
2022-08-21T11:34:04.007Z,21.39
2022-08-21T11:35:15.663Z,21.40
2022-08-21T11:36:34.813Z,21.39
2022-08-21T11:37:51.209Z,21.39
2022-08-21T11:39:00.554Z,21.38
2022-08-21T11:40:12.305Z,21.40
2022-08-21T11:41:37.528Z,21.38
2022-08-21T11:42:48.278Z,21.38
2022-08-21T11:43:57.426Z,21.39
2022-08-21T11:45:14.667Z,21.40
2022-08-21T11:46:30.390Z,21.41
2022-08-21T11:47:52.012Z,21.45
2022-08-21T11:49:06.441Z,21.47
2022-08-21T11:50:34.450Z,21.50
2022-08-21T11:51:43.504Z,21.53
2022-08-21T11:52:52.663Z,21.56
2022-08-21T11:54:07.291Z,21.58
2022-08-21T11:55:15.904Z,21.62
2022-08-21T11:56:26.118Z,21.64
2022-08-21T11:57:33.141Z,21.66
2022-08-21T11:58:41.899Z,21.68
2022-08-21T11:59:50.799Z,21.68
2022-08-21T12:00:57.933Z,21.69
2022-08-21T12:02:00.951Z,21.69
2022-08-21T12:03:13.447Z,21.68
2022-08-21T12:04:23.640Z,21.66
2022-08-21T12:05:36.102Z,21.66
2022-08-21T12:06:40.321Z,21.66
2022-08-21T12:07:45.179Z,21.67
2022-08-21T12:08:59.285Z,21.67
2022-08-21T12:10:06.345Z,21.68
2022-08-21T12:11:11.020Z,21.69
2022-08-21T12:12:26.392Z,21.70
2022-08-21T12:13:40.148Z,21.71
2022-08-21T12:14:46.424Z,21.72
2022-08-21T12:15:49.378Z,21.73
2022-08-21T12:16:51.678Z,21.74
2022-08-21T12:17:58.629Z,21.75
2022-08-21T12:19:08.876Z,21.76
2022-08-21T12:20:19.353Z,21.75
2022-08-21T12:21:25.657Z,21.74
2022-08-21T12:22:39.049Z,21.71
2022-08-21T12:23:47.744Z,21.70
2022-08-21T12:24:51.204Z,21.69
2022-08-21T12:26:19.500Z,21.67
2022-08-21T12:27:28.368Z,21.65
2022-08-21T12:28:31.996Z,21.64
2022-08-21T12:29:38.183Z,21.64
2022-08-21T12:30:44.312Z,21.62
2022-08-21T12:31:56.489Z,21.60
2022-08-21T12:33:03.048Z,21.58
2022-08-21T12:34:11.239Z,21.57
2022-08-21T12:35:24.610Z,21.57
2022-08-21T12:36:57.071Z,21.57
2022-08-21T12:38:07.501Z,21.60
2022-08-21T12:39:19.321Z,21.58
2022-08-21T12:40:27.413Z,21.61
2022-08-21T12:41:34.176Z,21.62
2022-08-21T12:42:43.081Z,21.63
2022-08-21T12:43:49.981Z,21.65
2022-08-21T12:44:56.123Z,21.66
2022-08-21T12:46:01.472Z,21.68
2022-08-21T12:47:07.765Z,21.69
2022-08-21T12:48:15.242Z,21.71
2022-08-21T12:49:28.435Z,21.71
2022-08-21T12:50:37.176Z,21.74
2022-08-21T12:51:50.894Z,21.73
2022-08-21T12:53:00.474Z,21.75
2022-08-21T12:54:03.486Z,21.76
2022-08-21T12:55:06.638Z,21.77
2022-08-21T12:56:13.395Z,21.77
2022-08-21T12:57:20.976Z,21.77
2022-08-21T12:58:26.714Z,21.79
2022-08-21T12:59:29.500Z,21.78
2022-08-21T13:00:33.340Z,21.78
2022-08-21T13:01:41.531Z,21.78
2022-08-21T13:02:50.277Z,21.78
2022-08-21T13:03:58.848Z,21.78
2022-08-21T13:05:14.742Z,21.76
2022-08-21T13:06:19.362Z,21.76
2022-08-21T13:07:29.045Z,21.75
2022-08-21T13:08:31.618Z,21.73
2022-08-21T13:09:34.561Z,21.73
2022-08-21T13:10:38.681Z,21.74
2022-08-21T13:11:42.191Z,21.74
2022-08-21T13:12:46.366Z,21.74
2022-08-21T13:13:51.101Z,21.76
2022-08-21T13:14:59.921Z,21.77
2022-08-21T13:16:08.638Z,21.79
2022-08-21T13:17:12.663Z,21.81
2022-08-21T13:18:24.344Z,21.82
2022-08-21T13:19:27.401Z,21.84
2022-08-21T13:20:34.045Z,21.85
2022-08-21T13:21:42.584Z,21.87
2022-08-21T13:22:46.577Z,21.87
2022-08-21T13:23:49.232Z,21.87
2022-08-21T13:24:52.531Z,21.88
2022-08-21T13:25:55.149Z,21.89
2022-08-21T13:26:58.792Z,21.89
2022-08-21T13:28:06.741Z,21.88
2022-08-21T13:29:11.879Z,21.87
2022-08-21T13:30:21.294Z,21.86
2022-08-21T13:31:28.970Z,21.86
2022-08-21T13:32:33.735Z,21.86
2022-08-21T13:33:37.525Z,21.85
2022-08-21T13:34:40.016Z,21.84
2022-08-21T13:35:53.347Z,21.83
2022-08-21T13:36:58.653Z,21.81
2022-08-21T13:38:03.262Z,21.82
2022-08-21T13:39:05.989Z,21.80
2022-08-21T13:40:12.313Z,21.80
2022-08-21T13:41:23.480Z,21.78
2022-08-21T13:42:25.501Z,21.77
2022-08-21T13:43:33.011Z,21.76
2022-08-21T13:44:37.944Z,21.76
2022-08-21T13:45:40.796Z,21.76
2022-08-21T13:46:43.822Z,21.75
2022-08-21T13:47:49.315Z,21.76
2022-08-21T13:48:51.674Z,21.76
2022-08-21T13:49:59.110Z,21.75
2022-08-21T13:51:03.801Z,21.76
2022-08-21T13:52:15.606Z,21.77
2022-08-21T13:53:23.942Z,21.75
2022-08-21T13:54:29.611Z,21.76
2022-08-21T13:55:40.835Z,21.76
2022-08-21T13:56:46.327Z,21.75
2022-08-21T13:57:48.268Z,21.73
2022-08-21T13:58:51.292Z,21.73
2022-08-21T13:59:53.227Z,21.75
2022-08-21T14:00:57.706Z,21.73
2022-08-21T14:02:03.634Z,21.73
2022-08-21T14:03:09.913Z,21.73
2022-08-21T14:04:20.921Z,21.73
2022-08-21T14:05:28.293Z,21.73
2022-08-21T14:06:40.367Z,21.73
2022-08-21T14:07:44.156Z,21.73
2022-08-21T14:08:52.216Z,21.74
2022-08-21T14:09:55.208Z,21.74
2022-08-21T14:10:58.968Z,21.75
2022-08-21T14:12:13.580Z,21.76